sensor_id;sensor_type;location;lat;lon;timestamp;P1;durP1;ratioP1;P2;durP2;ratioP2
11189;SDS011;5651;50.926;4.718;2023-04-15T00:01:25;9.05;;;4.80;;
11189;SDS011;5651;50.926;4.718;2023-04-15T00:03:52;13.07;;;5.13;;
11189;SDS011;5651;50.926;4.718;2023-04-15T00:06:19;9.23;;;4.85;;
11189;SDS011;5651;50.926;4.718;2023-04-15T00:08:46;8.38;;;4.75;;
11189;SDS011;5651;50.926;4.718;2023-04-15T00:11:13;8.93;;;5.03;;
11189;SDS011;5651;50.926;4.718;2023-04-15T00:13:39;10.57;;;4.93;;
11189;SDS011;5651;50.926;4.718;2023-04-15T00:16:06;9.40;;;4.97;;
11189;SDS011;5651;50.926;4.718;2023-04-15T00:18:33;8.57;;;4.72;;
11189;SDS011;5651;50.926;4.718;2023-04-15T00:21:00;9.43;;;5.13;;
11189;SDS011;5651;50.926;4.718;2023-04-15T00:23:26;10.88;;;5.60;;
11189;SDS011;5651;50.926;4.718;2023-04-15T00:25:52;8.50;;;4.55;;
11189;SDS011;5651;50.926;4.718;2023-04-15T00:28:17;8.80;;;4.38;;
11189;SDS011;5651;50.926;4.718;2023-04-15T00:30:44;11.50;;;4.93;;
11189;SDS011;5651;50.926;4.718;2023-04-15T00:33:11;9.73;;;4.63;;
11189;SDS011;5651;50.926;4.718;2023-04-15T00:35:38;8.70;;;4.32;;
11189;SDS011;5651;50.926;4.718;2023-04-15T00:38:04;10.90;;;5.07;;
11189;SDS011;5651;50.926;4.718;2023-04-15T00:40:32;10.95;;;4.97;;
11189;SDS011;5651;50.926;4.718;2023-04-15T00:42:58;9.25;;;4.70;;
11189;SDS011;5651;50.926;4.718;2023-04-15T00:45:25;9.98;;;4.85;;
11189;SDS011;5651;50.926;4.718;2023-04-15T00:47:52;8.68;;;6.50;;
11189;SDS011;5651;50.926;4.718;2023-04-15T00:50:18;8.23;;;4.80;;
11189;SDS011;5651;50.926;4.718;2023-04-15T00:52:43;7.60;;;4.57;;
11189;SDS011;5651;50.926;4.718;2023-04-15T00:55:09;8.82;;;4.50;;
11189;SDS011;5651;50.926;4.718;2023-04-15T00:57:36;8.60;;;4.70;;
11189;SDS011;5651;50.926;4.718;2023-04-15T01:00:04;8.73;;;4.63;;
11189;SDS011;5651;50.926;4.718;2023-04-15T01:02:32;7.97;;;4.65;;
11189;SDS011;5651;50.926;4.718;2023-04-15T01:04:59;7.47;;;4.55;;
11189;SDS011;5651;50.926;4.718;2023-04-15T01:07:25;12.57;;;4.55;;
11189;SDS011;5651;50.926;4.718;2023-04-15T01:09:51;10.40;;;4.65;;
11189;SDS011;5651;50.926;4.718;2023-04-15T01:12:17;9.02;;;4.57;;
11189;SDS011;5651;50.926;4.718;2023-04-15T01:14:44;10.55;;;4.70;;
11189;SDS011;5651;50.926;4.718;2023-04-15T01:17:10;9.40;;;5.43;;
11189;SDS011;5651;50.926;4.718;2023-04-15T01:19:37;10.75;;;4.45;;
11189;SDS011;5651;50.926;4.718;2023-04-15T01:22:03;11.85;;;5.30;;
11189;SDS011;5651;50.926;4.718;2023-04-15T01:24:30;12.45;;;5.55;;
11189;SDS011;5651;50.926;4.718;2023-04-15T01:26:57;9.48;;;5.72;;
11189;SDS011;5651;50.926;4.718;2023-04-15T01:29:24;8.02;;;5.15;;
11189;SDS011;5651;50.926;4.718;2023-04-15T01:31:53;11.32;;;5.10;;
11189;SDS011;5651;50.926;4.718;2023-04-15T01:34:20;9.25;;;5.15;;
11189;SDS011;5651;50.926;4.718;2023-04-15T01:36:46;10.60;;;4.70;;
11189;SDS011;5651;50.926;4.718;2023-04-15T01:39:12;11.60;;;4.75;;
11189;SDS011;5651;50.926;4.718;2023-04-15T01:41:38;8.48;;;4.97;;
11189;SDS011;5651;50.926;4.718;2023-04-15T01:44:05;9.57;;;5.25;;
11189;SDS011;5651;50.926;4.718;2023-04-15T01:46:31;10.73;;;5.07;;
11189;SDS011;5651;50.926;4.718;2023-04-15T01:48:57;8.35;;;4.93;;
11189;SDS011;5651;50.926;4.718;2023-04-15T01:51:23;8.50;;;4.97;;
11189;SDS011;5651;50.926;4.718;2023-04-15T01:53:49;9.05;;;5.35;;
11189;SDS011;5651;50.926;4.718;2023-04-15T01:56:15;13.35;;;5.55;;
11189;SDS011;5651;50.926;4.718;2023-04-15T01:58:41;9.65;;;5.03;;
11189;SDS011;5651;50.926;4.718;2023-04-15T02:01:07;9.55;;;5.95;;
11189;SDS011;5651;50.926;4.718;2023-04-15T02:03:34;9.40;;;4.93;;
11189;SDS011;5651;50.926;4.718;2023-04-15T02:06:00;12.50;;;4.95;;
11189;SDS011;5651;50.926;4.718;2023-04-15T02:08:26;8.18;;;4.90;;
11189;SDS011;5651;50.926;4.718;2023-04-15T02:10:53;11.27;;;5.43;;
11189;SDS011;5651;50.926;4.718;2023-04-15T02:13:18;8.90;;;5.20;;
11189;SDS011;5651;50.926;4.718;2023-04-15T02:15:47;13.80;;;5.63;;
11189;SDS011;5651;50.926;4.718;2023-04-15T02:18:14;8.43;;;5.20;;
11189;SDS011;5651;50.926;4.718;2023-04-15T02:20:41;10.63;;;5.38;;
11189;SDS011;5651;50.926;4.718;2023-04-15T02:23:11;9.38;;;5.05;;
11189;SDS011;5651;50.926;4.718;2023-04-15T02:25:37;9.65;;;5.20;;
11189;SDS011;5651;50.926;4.718;2023-04-15T02:28:04;12.55;;;5.35;;
11189;SDS011;5651;50.926;4.718;2023-04-15T02:30:30;10.07;;;5.07;;
11189;SDS011;5651;50.926;4.718;2023-04-15T02:32:57;10.82;;;5.30;;
11189;SDS011;5651;50.926;4.718;2023-04-15T02:35:23;9.10;;;5.13;;
11189;SDS011;5651;50.926;4.718;2023-04-15T02:37:50;10.93;;;5.55;;
11189;SDS011;5651;50.926;4.718;2023-04-15T02:40:16;8.00;;;4.90;;
11189;SDS011;5651;50.926;4.718;2023-04-15T02:42:42;9.73;;;5.43;;
11189;SDS011;5651;50.926;4.718;2023-04-15T02:45:08;9.25;;;5.15;;
11189;SDS011;5651;50.926;4.718;2023-04-15T02:47:36;10.13;;;6.47;;
11189;SDS011;5651;50.926;4.718;2023-04-15T02:50:10;10.23;;;5.10;;
11189;SDS011;5651;50.926;4.718;2023-04-15T02:52:40;11.43;;;5.75;;
11189;SDS011;5651;50.926;4.718;2023-04-15T02:55:07;14.68;;;5.50;;
11189;SDS011;5651;50.926;4.718;2023-04-15T02:57:34;9.88;;;5.07;;
11189;SDS011;5651;50.926;4.718;2023-04-15T03:00:02;10.45;;;5.43;;
11189;SDS011;5651;50.926;4.718;2023-04-15T03:02:32;11.75;;;6.05;;
11189;SDS011;5651;50.926;4.718;2023-04-15T03:04:59;11.98;;;5.53;;
11189;SDS011;5651;50.926;4.718;2023-04-15T03:07:25;9.88;;;5.20;;
11189;SDS011;5651;50.926;4.718;2023-04-15T03:09:51;10.45;;;5.15;;
11189;SDS011;5651;50.926;4.718;2023-04-15T03:12:17;9.15;;;5.68;;
11189;SDS011;5651;50.926;4.718;2023-04-15T03:14:43;11.80;;;5.50;;
11189;SDS011;5651;50.926;4.718;2023-04-15T03:17:09;7.50;;;5.20;;
11189;SDS011;5651;50.926;4.718;2023-04-15T03:19:34;10.52;;;5.18;;
11189;SDS011;5651;50.926;4.718;2023-04-15T03:22:00;9.38;;;5.00;;
11189;SDS011;5651;50.926;4.718;2023-04-15T03:24:26;10.30;;;5.53;;
11189;SDS011;5651;50.926;4.718;2023-04-15T03:26:54;14.23;;;6.20;;
11189;SDS011;5651;50.926;4.718;2023-04-15T03:29:20;10.40;;;6.20;;
11189;SDS011;5651;50.926;4.718;2023-04-15T03:31:46;10.65;;;5.35;;
11189;SDS011;5651;50.926;4.718;2023-04-15T03:34:12;13.52;;;6.05;;
11189;SDS011;5651;50.926;4.718;2023-04-15T03:36:38;11.25;;;6.18;;
11189;SDS011;5651;50.926;4.718;2023-04-15T03:39:04;11.95;;;6.35;;
11189;SDS011;5651;50.926;4.718;2023-04-15T03:41:30;11.73;;;6.03;;
11189;SDS011;5651;50.926;4.718;2023-04-15T03:43:57;12.77;;;6.43;;
11189;SDS011;5651;50.926;4.718;2023-04-15T03:46:23;11.13;;;6.32;;
11189;SDS011;5651;50.926;4.718;2023-04-15T03:48:48;13.30;;;6.75;;
11189;SDS011;5651;50.926;4.718;2023-04-15T03:51:14;9.85;;;6.45;;
11189;SDS011;5651;50.926;4.718;2023-04-15T03:53:40;11.00;;;6.28;;
11189;SDS011;5651;50.926;4.718;2023-04-15T03:56:06;9.23;;;5.90;;
11189;SDS011;5651;50.926;4.718;2023-04-15T03:58:31;10.60;;;6.88;;
11189;SDS011;5651;50.926;4.718;2023-04-15T04:00:57;9.00;;;5.35;;
11189;SDS011;5651;50.926;4.718;2023-04-15T04:03:23;11.77;;;6.03;;
11189;SDS011;5651;50.926;4.718;2023-04-15T04:05:50;8.35;;;5.47;;
11189;SDS011;5651;50.926;4.718;2023-04-15T04:08:16;9.90;;;5.68;;
11189;SDS011;5651;50.926;4.718;2023-04-15T04:10:43;10.32;;;6.40;;
11189;SDS011;5651;50.926;4.718;2023-04-15T04:13:09;11.23;;;6.25;;
11189;SDS011;5651;50.926;4.718;2023-04-15T04:15:35;11.57;;;6.72;;
11189;SDS011;5651;50.926;4.718;2023-04-15T04:18:01;10.07;;;6.00;;
11189;SDS011;5651;50.926;4.718;2023-04-15T04:20:27;13.00;;;6.95;;
11189;SDS011;5651;50.926;4.718;2023-04-15T04:22:53;11.27;;;6.35;;
11189;SDS011;5651;50.926;4.718;2023-04-15T04:25:18;11.13;;;6.35;;
11189;SDS011;5651;50.926;4.718;2023-04-15T04:27:44;9.32;;;6.13;;
11189;SDS011;5651;50.926;4.718;2023-04-15T04:30:10;10.07;;;6.25;;
11189;SDS011;5651;50.926;4.718;2023-04-15T04:32:36;11.82;;;6.63;;
11189;SDS011;5651;50.926;4.718;2023-04-15T04:35:03;10.23;;;5.82;;
11189;SDS011;5651;50.926;4.718;2023-04-15T04:37:29;10.70;;;6.95;;
11189;SDS011;5651;50.926;4.718;2023-04-15T04:39:55;11.25;;;6.50;;
11189;SDS011;5651;50.926;4.718;2023-04-15T04:42:21;10.63;;;6.15;;
11189;SDS011;5651;50.926;4.718;2023-04-15T04:44:47;11.20;;;6.38;;
11189;SDS011;5651;50.926;4.718;2023-04-15T04:47:13;12.98;;;6.50;;
11189;SDS011;5651;50.926;4.718;2023-04-15T04:49:38;12.15;;;6.60;;
11189;SDS011;5651;50.926;4.718;2023-04-15T04:52:05;8.82;;;5.93;;
11189;SDS011;5651;50.926;4.718;2023-04-15T04:54:31;9.52;;;6.80;;
11189;SDS011;5651;50.926;4.718;2023-04-15T04:56:57;11.20;;;6.63;;
11189;SDS011;5651;50.926;4.718;2023-04-15T04:59:23;12.60;;;6.65;;
11189;SDS011;5651;50.926;4.718;2023-04-15T05:01:49;11.93;;;6.93;;
11189;SDS011;5651;50.926;4.718;2023-04-15T05:04:15;11.98;;;7.43;;
11189;SDS011;5651;50.926;4.718;2023-04-15T05:06:41;11.23;;;6.75;;
11189;SDS011;5651;50.926;4.718;2023-04-15T05:09:07;11.93;;;7.20;;
11189;SDS011;5651;50.926;4.718;2023-04-15T05:11:33;10.77;;;6.32;;
11189;SDS011;5651;50.926;4.718;2023-04-15T05:13:58;13.90;;;7.50;;
11189;SDS011;5651;50.926;4.718;2023-04-15T05:16:26;13.73;;;8.25;;
11189;SDS011;5651;50.926;4.718;2023-04-15T05:18:52;13.55;;;7.50;;
11189;SDS011;5651;50.926;4.718;2023-04-15T05:21:18;13.73;;;7.95;;
11189;SDS011;5651;50.926;4.718;2023-04-15T05:23:44;10.30;;;7.47;;
11189;SDS011;5651;50.926;4.718;2023-04-15T05:26:10;13.93;;;7.47;;
11189;SDS011;5651;50.926;4.718;2023-04-15T05:28:36;10.80;;;6.80;;
11189;SDS011;5651;50.926;4.718;2023-04-15T05:31:02;13.10;;;8.13;;
11189;SDS011;5651;50.926;4.718;2023-04-15T05:33:28;14.07;;;7.43;;
11189;SDS011;5651;50.926;4.718;2023-04-15T05:35:54;13.57;;;7.43;;
11189;SDS011;5651;50.926;4.718;2023-04-15T05:38:20;13.55;;;7.90;;
11189;SDS011;5651;50.926;4.718;2023-04-15T05:40:46;11.35;;;7.82;;
11189;SDS011;5651;50.926;4.718;2023-04-15T05:43:12;12.85;;;7.90;;
11189;SDS011;5651;50.926;4.718;2023-04-15T05:45:37;13.25;;;7.65;;
11189;SDS011;5651;50.926;4.718;2023-04-15T05:48:03;11.90;;;7.75;;
11189;SDS011;5651;50.926;4.718;2023-04-15T05:50:29;12.00;;;7.50;;
11189;SDS011;5651;50.926;4.718;2023-04-15T05:52:55;13.35;;;7.15;;
11189;SDS011;5651;50.926;4.718;2023-04-15T05:55:21;10.63;;;6.80;;
11189;SDS011;5651;50.926;4.718;2023-04-15T05:57:46;11.32;;;7.00;;
11189;SDS011;5651;50.926;4.718;2023-04-15T06:00:12;14.55;;;7.88;;
11189;SDS011;5651;50.926;4.718;2023-04-15T06:02:39;14.15;;;7.72;;
11189;SDS011;5651;50.926;4.718;2023-04-15T06:05:06;11.27;;;7.28;;
11189;SDS011;5651;50.926;4.718;2023-04-15T06:07:34;14.15;;;7.95;;
11189;SDS011;5651;50.926;4.718;2023-04-15T06:10:01;11.75;;;7.10;;
11189;SDS011;5651;50.926;4.718;2023-04-15T06:12:30;11.43;;;7.20;;
11189;SDS011;5651;50.926;4.718;2023-04-15T06:14:56;12.13;;;8.13;;
11189;SDS011;5651;50.926;4.718;2023-04-15T06:17:22;15.07;;;8.38;;
11189;SDS011;5651;50.926;4.718;2023-04-15T06:19:47;11.68;;;7.30;;
11189;SDS011;5651;50.926;4.718;2023-04-15T06:22:15;14.02;;;8.02;;
11189;SDS011;5651;50.926;4.718;2023-04-15T06:24:41;14.38;;;8.52;;
11189;SDS011;5651;50.926;4.718;2023-04-15T06:27:07;13.13;;;7.65;;
11189;SDS011;5651;50.926;4.718;2023-04-15T06:29:32;14.43;;;8.52;;
11189;SDS011;5651;50.926;4.718;2023-04-15T06:31:58;16.88;;;7.95;;
11189;SDS011;5651;50.926;4.718;2023-04-15T06:34:24;17.27;;;8.38;;
11189;SDS011;5651;50.926;4.718;2023-04-15T06:36:50;14.93;;;8.82;;
11189;SDS011;5651;50.926;4.718;2023-04-15T06:39:16;16.08;;;8.60;;
11189;SDS011;5651;50.926;4.718;2023-04-15T06:41:42;18.02;;;9.77;;
11189;SDS011;5651;50.926;4.718;2023-04-15T06:44:08;14.70;;;8.40;;
11189;SDS011;5651;50.926;4.718;2023-04-15T06:46:33;18.48;;;9.70;;
11189;SDS011;5651;50.926;4.718;2023-04-15T06:48:59;14.25;;;9.38;;
11189;SDS011;5651;50.926;4.718;2023-04-15T06:51:25;14.73;;;9.35;;
11189;SDS011;5651;50.926;4.718;2023-04-15T06:53:51;18.08;;;9.18;;
11189;SDS011;5651;50.926;4.718;2023-04-15T06:56:17;15.50;;;10.57;;
11189;SDS011;5651;50.926;4.718;2023-04-15T06:58:43;16.35;;;9.88;;
11189;SDS011;5651;50.926;4.718;2023-04-15T07:01:09;15.80;;;9.13;;
11189;SDS011;5651;50.926;4.718;2023-04-15T07:03:35;14.52;;;9.15;;
11189;SDS011;5651;50.926;4.718;2023-04-15T07:06:01;15.77;;;8.90;;
11189;SDS011;5651;50.926;4.718;2023-04-15T07:08:31;14.02;;;9.40;;
11189;SDS011;5651;50.926;4.718;2023-04-15T07:10:58;16.27;;;9.27;;
11189;SDS011;5651;50.926;4.718;2023-04-15T07:13:25;16.80;;;8.93;;
11189;SDS011;5651;50.926;4.718;2023-04-15T07:15:51;15.30;;;9.70;;
11189;SDS011;5651;50.926;4.718;2023-04-15T07:18:17;17.45;;;10.88;;
11189;SDS011;5651;50.926;4.718;2023-04-15T07:20:43;18.67;;;10.25;;
11189;SDS011;5651;50.926;4.718;2023-04-15T07:23:09;16.38;;;10.25;;
11189;SDS011;5651;50.926;4.718;2023-04-15T07:25:35;14.82;;;10.90;;
11189;SDS011;5651;50.926;4.718;2023-04-15T07:28:01;17.10;;;9.13;;
11189;SDS011;5651;50.926;4.718;2023-04-15T07:30:26;16.90;;;10.48;;
11189;SDS011;5651;50.926;4.718;2023-04-15T07:32:55;14.68;;;10.55;;
11189;SDS011;5651;50.926;4.718;2023-04-15T07:35:23;16.05;;;10.45;;
11189;SDS011;5651;50.926;4.718;2023-04-15T07:37:50;17.20;;;10.13;;
11189;SDS011;5651;50.926;4.718;2023-04-15T07:40:16;16.17;;;9.68;;
11189;SDS011;5651;50.926;4.718;2023-04-15T07:42:42;12.75;;;9.10;;
11189;SDS011;5651;50.926;4.718;2023-04-15T07:45:09;13.38;;;8.85;;
11189;SDS011;5651;50.926;4.718;2023-04-15T07:47:35;14.70;;;9.65;;
11189;SDS011;5651;50.926;4.718;2023-04-15T07:50:01;14.88;;;9.25;;
11189;SDS011;5651;50.926;4.718;2023-04-15T07:52:27;16.25;;;9.52;;
11189;SDS011;5651;50.926;4.718;2023-04-15T07:54:53;18.13;;;9.02;;
11189;SDS011;5651;50.926;4.718;2023-04-15T07:57:19;14.70;;;9.63;;
11189;SDS011;5651;50.926;4.718;2023-04-15T07:59:45;14.50;;;8.95;;
11189;SDS011;5651;50.926;4.718;2023-04-15T08:02:11;15.40;;;8.50;;
11189;SDS011;5651;50.926;4.718;2023-04-15T08:04:36;13.30;;;8.63;;
11189;SDS011;5651;50.926;4.718;2023-04-15T08:07:02;11.00;;;8.20;;
11189;SDS011;5651;50.926;4.718;2023-04-15T08:09:29;16.92;;;8.23;;
11189;SDS011;5651;50.926;4.718;2023-04-15T08:11:55;14.05;;;8.45;;
11189;SDS011;5651;50.926;4.718;2023-04-15T08:14:21;12.40;;;8.90;;
11189;SDS011;5651;50.926;4.718;2023-04-15T08:16:48;12.90;;;7.88;;
11189;SDS011;5651;50.926;4.718;2023-04-15T08:19:14;13.55;;;8.40;;
11189;SDS011;5651;50.926;4.718;2023-04-15T08:21:40;13.68;;;8.48;;
11189;SDS011;5651;50.926;4.718;2023-04-15T08:24:06;14.35;;;9.30;;
11189;SDS011;5651;50.926;4.718;2023-04-15T08:26:32;14.32;;;8.93;;
11189;SDS011;5651;50.926;4.718;2023-04-15T08:28:58;12.82;;;8.23;;
11189;SDS011;5651;50.926;4.718;2023-04-15T08:31:25;12.80;;;7.60;;
11189;SDS011;5651;50.926;4.718;2023-04-15T08:33:51;14.00;;;8.48;;
11189;SDS011;5651;50.926;4.718;2023-04-15T08:36:18;16.17;;;8.25;;
11189;SDS011;5651;50.926;4.718;2023-04-15T08:38:44;14.95;;;8.32;;
11189;SDS011;5651;50.926;4.718;2023-04-15T08:41:11;16.38;;;9.40;;
11189;SDS011;5651;50.926;4.718;2023-04-15T08:43:52;16.02;;;9.70;;
11189;SDS011;5651;50.926;4.718;2023-04-15T08:46:28;15.82;;;9.50;;
11189;SDS011;5651;50.926;4.718;2023-04-15T08:48:56;14.85;;;9.80;;
11189;SDS011;5651;50.926;4.718;2023-04-15T08:51:23;13.93;;;10.48;;
11189;SDS011;5651;50.926;4.718;2023-04-15T08:53:50;13.63;;;10.15;;
11189;SDS011;5651;50.926;4.718;2023-04-15T08:56:17;14.00;;;10.38;;
11189;SDS011;5651;50.926;4.718;2023-04-15T08:58:44;14.50;;;9.30;;
11189;SDS011;5651;50.926;4.718;2023-04-15T09:01:11;14.68;;;8.48;;
11189;SDS011;5651;50.926;4.718;2023-04-15T09:03:38;14.63;;;9.73;;
11189;SDS011;5651;50.926;4.718;2023-04-15T09:06:05;15.65;;;9.15;;
11189;SDS011;5651;50.926;4.718;2023-04-15T09:08:31;14.77;;;9.88;;
11189;SDS011;5651;50.926;4.718;2023-04-15T09:11:00;13.25;;;9.30;;
11189;SDS011;5651;50.926;4.718;2023-04-15T09:13:26;12.10;;;8.82;;
11189;SDS011;5651;50.926;4.718;2023-04-15T09:15:52;16.63;;;7.90;;
11189;SDS011;5651;50.926;4.718;2023-04-15T09:18:26;14.30;;;7.45;;
11189;SDS011;5651;50.926;4.718;2023-04-15T09:20:54;11.52;;;6.70;;
11189;SDS011;5651;50.926;4.718;2023-04-15T09:23:20;11.85;;;6.75;;
11189;SDS011;5651;50.926;4.718;2023-04-15T09:25:46;11.85;;;7.55;;
11189;SDS011;5651;50.926;4.718;2023-04-15T09:28:13;12.77;;;7.88;;
11189;SDS011;5651;50.926;4.718;2023-04-15T09:30:41;15.13;;;7.28;;
11189;SDS011;5651;50.926;4.718;2023-04-15T09:33:10;11.85;;;6.78;;
11189;SDS011;5651;50.926;4.718;2023-04-15T09:35:39;12.00;;;7.05;;
11189;SDS011;5651;50.926;4.718;2023-04-15T09:38:06;12.15;;;8.02;;
11189;SDS011;5651;50.926;4.718;2023-04-15T09:40:35;12.13;;;7.78;;
11189;SDS011;5651;50.926;4.718;2023-04-15T09:43:05;10.10;;;6.45;;
11189;SDS011;5651;50.926;4.718;2023-04-15T09:45:32;9.30;;;5.60;;
11189;SDS011;5651;50.926;4.718;2023-04-15T09:47:59;9.30;;;5.68;;
11189;SDS011;5651;50.926;4.718;2023-04-15T09:50:41;8.65;;;5.07;;
11189;SDS011;5651;50.926;4.718;2023-04-15T09:53:10;9.95;;;5.35;;
11189;SDS011;5651;50.926;4.718;2023-04-15T09:55:36;7.80;;;4.70;;
11189;SDS011;5651;50.926;4.718;2023-04-15T09:58:07;6.32;;;4.60;;
11189;SDS011;5651;50.926;4.718;2023-04-15T10:00:34;8.65;;;4.85;;
11189;SDS011;5651;50.926;4.718;2023-04-15T10:03:01;7.53;;;5.00;;
11189;SDS011;5651;50.926;4.718;2023-04-15T10:05:29;9.05;;;5.18;;
11189;SDS011;5651;50.926;4.718;2023-04-15T10:07:56;8.65;;;4.85;;
11189;SDS011;5651;50.926;4.718;2023-04-15T10:10:23;7.97;;;4.80;;
11189;SDS011;5651;50.926;4.718;2023-04-15T10:12:49;9.60;;;5.55;;
11189;SDS011;5651;50.926;4.718;2023-04-15T10:15:16;8.48;;;5.10;;
11189;SDS011;5651;50.926;4.718;2023-04-15T10:17:43;13.30;;;5.63;;
11189;SDS011;5651;50.926;4.718;2023-04-15T10:20:11;8.52;;;5.50;;
11189;SDS011;5651;50.926;4.718;2023-04-15T10:22:39;6.43;;;4.07;;
11189;SDS011;5651;50.926;4.718;2023-04-15T10:25:06;7.68;;;4.38;;
11189;SDS011;5651;50.926;4.718;2023-04-15T10:27:33;11.32;;;4.50;;
11189;SDS011;5651;50.926;4.718;2023-04-15T10:30:01;6.95;;;4.45;;
11189;SDS011;5651;50.926;4.718;2023-04-15T10:32:28;7.07;;;4.88;;
11189;SDS011;5651;50.926;4.718;2023-04-15T10:34:54;12.98;;;6.47;;
11189;SDS011;5651;50.926;4.718;2023-04-15T10:37:21;9.50;;;5.57;;
11189;SDS011;5651;50.926;4.718;2023-04-15T10:39:57;9.43;;;5.40;;
11189;SDS011;5651;50.926;4.718;2023-04-15T10:42:23;10.68;;;5.72;;
11189;SDS011;5651;50.926;4.718;2023-04-15T10:44:50;8.65;;;5.25;;
11189;SDS011;5651;50.926;4.718;2023-04-15T10:47:21;7.90;;;4.80;;
11189;SDS011;5651;50.926;4.718;2023-04-15T10:49:51;10.30;;;5.72;;
11189;SDS011;5651;50.926;4.718;2023-04-15T10:52:23;7.55;;;4.93;;
11189;SDS011;5651;50.926;4.718;2023-04-15T10:55:18;8.07;;;4.57;;
11189;SDS011;5651;50.926;4.718;2023-04-15T10:57:44;7.07;;;4.93;;
11189;SDS011;5651;50.926;4.718;2023-04-15T11:02:40;9.20;;;3.80;;
11189;SDS011;5651;50.926;4.718;2023-04-15T11:05:14;6.43;;;3.72;;
11189;SDS011;5651;50.926;4.718;2023-04-15T11:07:51;6.20;;;2.80;;
11189;SDS011;5651;50.926;4.718;2023-04-15T11:12:51;6.32;;;4.03;;
11189;SDS011;5651;50.926;4.718;2023-04-15T11:15:37;6.57;;;3.95;;
11189;SDS011;5651;50.926;4.718;2023-04-15T11:18:09;6.88;;;4.65;;
11189;SDS011;5651;50.926;4.718;2023-04-15T11:20:37;6.85;;;4.15;;
11189;SDS011;5651;50.926;4.718;2023-04-15T11:23:04;6.60;;;3.83;;
11189;SDS011;5651;50.926;4.718;2023-04-15T11:25:31;6.13;;;3.80;;
11189;SDS011;5651;50.926;4.718;2023-04-15T11:27:58;7.40;;;4.50;;
11189;SDS011;5651;50.926;4.718;2023-04-15T11:30:29;11.48;;;4.53;;
11189;SDS011;5651;50.926;4.718;2023-04-15T11:32:57;7.00;;;3.85;;
11189;SDS011;5651;50.926;4.718;2023-04-15T11:35:25;8.68;;;5.22;;
11189;SDS011;5651;50.926;4.718;2023-04-15T11:37:51;8.60;;;5.25;;
11189;SDS011;5651;50.926;4.718;2023-04-15T11:40:24;8.50;;;5.32;;
11189;SDS011;5651;50.926;4.718;2023-04-15T11:45:32;8.88;;;4.50;;
11189;SDS011;5651;50.926;4.718;2023-04-15T11:50:31;7.07;;;3.65;;
11189;SDS011;5651;50.926;4.718;2023-04-15T11:53:00;7.15;;;4.43;;
11189;SDS011;5651;50.926;4.718;2023-04-15T11:55:27;6.72;;;3.88;;
11189;SDS011;5651;50.926;4.718;2023-04-15T12:00:39;6.68;;;3.72;;
11189;SDS011;5651;50.926;4.718;2023-04-15T12:06:01;4.65;;;3.30;;
11189;SDS011;5651;50.926;4.718;2023-04-15T12:09:31;5.43;;;3.20;;
11189;SDS011;5651;50.926;4.718;2023-04-15T12:11:44;7.88;;;3.50;;
11189;SDS011;5651;50.926;4.718;2023-04-15T12:14:15;5.22;;;2.90;;
11189;SDS011;5651;50.926;4.718;2023-04-15T12:16:52;4.00;;;2.90;;
11189;SDS011;5651;50.926;4.718;2023-04-15T12:19:23;5.55;;;3.00;;
11189;SDS011;5651;50.926;4.718;2023-04-15T12:21:52;5.60;;;2.60;;
11189;SDS011;5651;50.926;4.718;2023-04-15T12:24:23;6.03;;;2.55;;
11189;SDS011;5651;50.926;4.718;2023-04-15T12:26:50;7.10;;;2.83;;
11189;SDS011;5651;50.926;4.718;2023-04-15T12:29:24;5.95;;;2.88;;
11189;SDS011;5651;50.926;4.718;2023-04-15T12:31:58;5.47;;;2.35;;
11189;SDS011;5651;50.926;4.718;2023-04-15T12:37:10;6.03;;;2.30;;
11189;SDS011;5651;50.926;4.718;2023-04-15T12:39:38;8.55;;;2.22;;
11189;SDS011;5651;50.926;4.718;2023-04-15T12:42:06;3.65;;;1.92;;
11189;SDS011;5651;50.926;4.718;2023-04-15T12:44:33;4.63;;;2.50;;
11189;SDS011;5651;50.926;4.718;2023-04-15T12:46:59;2.95;;;2.00;;
11189;SDS011;5651;50.926;4.718;2023-04-15T12:49:26;6.18;;;2.53;;
11189;SDS011;5651;50.926;4.718;2023-04-15T12:51:53;5.70;;;2.80;;
11189;SDS011;5651;50.926;4.718;2023-04-15T12:54:24;4.67;;;2.23;;
11189;SDS011;5651;50.926;4.718;2023-04-15T12:56:51;4.82;;;2.42;;
11189;SDS011;5651;50.926;4.718;2023-04-15T12:59:18;3.33;;;2.45;;
11189;SDS011;5651;50.926;4.718;2023-04-15T13:01:47;4.95;;;2.63;;
11189;SDS011;5651;50.926;4.718;2023-04-15T13:04:13;6.75;;;3.17;;
11189;SDS011;5651;50.926;4.718;2023-04-15T13:06:39;6.72;;;2.83;;
11189;SDS011;5651;50.926;4.718;2023-04-15T13:09:05;6.15;;;2.95;;
11189;SDS011;5651;50.926;4.718;2023-04-15T13:11:31;5.22;;;2.60;;
11189;SDS011;5651;50.926;4.718;2023-04-15T13:14:04;6.18;;;2.67;;
11189;SDS011;5651;50.926;4.718;2023-04-15T13:16:32;4.57;;;2.28;;
11189;SDS011;5651;50.926;4.718;2023-04-15T13:18:59;4.60;;;2.67;;
11189;SDS011;5651;50.926;4.718;2023-04-15T13:21:26;4.20;;;2.58;;
11189;SDS011;5651;50.926;4.718;2023-04-15T13:23:52;2.67;;;1.95;;
11189;SDS011;5651;50.926;4.718;2023-04-15T13:26:17;3.20;;;2.22;;
11189;SDS011;5651;50.926;4.718;2023-04-15T13:28:44;5.82;;;2.47;;
11189;SDS011;5651;50.926;4.718;2023-04-15T13:31:10;5.68;;;1.75;;
11189;SDS011;5651;50.926;4.718;2023-04-15T13:33:36;5.70;;;2.60;;
11189;SDS011;5651;50.926;4.718;2023-04-15T13:36:02;3.70;;;2.13;;
11189;SDS011;5651;50.926;4.718;2023-04-15T13:38:28;7.63;;;2.75;;
11189;SDS011;5651;50.926;4.718;2023-04-15T13:40:54;6.20;;;2.42;;
11189;SDS011;5651;50.926;4.718;2023-04-15T13:43:20;4.95;;;2.30;;
11189;SDS011;5651;50.926;4.718;2023-04-15T13:45:46;3.13;;;2.30;;
11189;SDS011;5651;50.926;4.718;2023-04-15T13:48:12;6.20;;;2.78;;
11189;SDS011;5651;50.926;4.718;2023-04-15T13:50:38;5.38;;;2.40;;
11189;SDS011;5651;50.926;4.718;2023-04-15T13:53:05;5.20;;;2.78;;
11189;SDS011;5651;50.926;4.718;2023-04-15T13:55:31;5.05;;;3.05;;
11189;SDS011;5651;50.926;4.718;2023-04-15T13:57:59;4.63;;;2.70;;
11189;SDS011;5651;50.926;4.718;2023-04-15T14:00:25;7.65;;;3.10;;
11189;SDS011;5651;50.926;4.718;2023-04-15T14:02:51;4.60;;;2.83;;
11189;SDS011;5651;50.926;4.718;2023-04-15T14:05:16;4.95;;;2.50;;
11189;SDS011;5651;50.926;4.718;2023-04-15T14:07:42;4.22;;;2.65;;
11189;SDS011;5651;50.926;4.718;2023-04-15T14:10:09;6.18;;;3.17;;
11189;SDS011;5651;50.926;4.718;2023-04-15T14:12:35;7.18;;;3.05;;
11189;SDS011;5651;50.926;4.718;2023-04-15T14:15:01;5.40;;;3.08;;
11189;SDS011;5651;50.926;4.718;2023-04-15T14:17:27;6.97;;;3.08;;
11189;SDS011;5651;50.926;4.718;2023-04-15T14:19:53;9.68;;;3.05;;
11189;SDS011;5651;50.926;4.718;2023-04-15T14:22:19;4.07;;;2.05;;
11189;SDS011;5651;50.926;4.718;2023-04-15T14:24:45;4.00;;;2.25;;
11189;SDS011;5651;50.926;4.718;2023-04-15T14:27:13;4.32;;;1.92;;
11189;SDS011;5651;50.926;4.718;2023-04-15T14:29:38;3.55;;;1.60;;
11189;SDS011;5651;50.926;4.718;2023-04-15T14:32:04;3.22;;;2.40;;
11189;SDS011;5651;50.926;4.718;2023-04-15T14:34:31;4.13;;;2.50;;
11189;SDS011;5651;50.926;4.718;2023-04-15T14:36:57;3.92;;;2.13;;
11189;SDS011;5651;50.926;4.718;2023-04-15T14:39:23;3.30;;;2.15;;
11189;SDS011;5651;50.926;4.718;2023-04-15T14:41:48;7.03;;;2.70;;
11189;SDS011;5651;50.926;4.718;2023-04-15T14:44:14;2.97;;;2.40;;
11189;SDS011;5651;50.926;4.718;2023-04-15T14:46:40;4.18;;;2.13;;
11189;SDS011;5651;50.926;4.718;2023-04-15T14:49:06;4.72;;;2.30;;
11189;SDS011;5651;50.926;4.718;2023-04-15T14:51:32;3.25;;;1.58;;
11189;SDS011;5651;50.926;4.718;2023-04-15T14:53:58;5.93;;;1.40;;
11189;SDS011;5651;50.926;4.718;2023-04-15T14:56:24;5.60;;;1.85;;
11189;SDS011;5651;50.926;4.718;2023-04-15T14:58:50;2.30;;;1.50;;
11189;SDS011;5651;50.926;4.718;2023-04-15T15:01:19;1.30;;;1.13;;
11189;SDS011;5651;50.926;4.718;2023-04-15T15:03:45;2.92;;;1.75;;
11189;SDS011;5651;50.926;4.718;2023-04-15T15:06:11;3.00;;;1.20;;
11189;SDS011;5651;50.926;4.718;2023-04-15T15:08:37;3.40;;;1.50;;
11189;SDS011;5651;50.926;4.718;2023-04-15T15:11:03;3.00;;;1.17;;